ZBAA/PEK METAR and TAF weather

Enter ICAO airport designator
Station Type Date Time Source
ZBAA METAR 2021/10/24 21:00 UTC NOAA

ZBAA 242100Z 36001MPS 4500 BR NSC 05/04 Q1021 NOSIG


Station Type Date Time Source
ZBAA Decoded METAR 2021/10/24 21:00 UTC NOAA

Beijing, China (ZBAA) 39-56N 116-17E 55M
Oct 24, 2021 - 05:00 PM EDT / 2021.10.24 2100 UTC
Wind: from the N (360 degrees) at 2 MPH (2 KT):0
Visibility: 2 mile(s):0
Weather: mist
Temperature: 41 F (5 C)
Dew Point: 39 F (4 C)
Relative Humidity: 93%
Pressure (altimeter): 30.15 in. Hg (1021 hPa)
ob: ZBAA 242100Z 36001MPS 4500 BR NSC 05/04 Q1021 NOSIG
cycle: 21

Station Type Date Time Source
ZBAA TAF 2021/10/24 18:03 UTC NOAA

TAF TAF ZBAA 241500Z 2418/2518 18004MPS CAVOK TX17/2507Z TN03/2421Z

Example: see airport list